Current Conditions
Rain
Conditions



Pressure
1005.76 (hPa) - 29.7 (inHG)
Visibility

3.4 (km) - 2.1 (miles)
Temperature
16  °C
Temperature
15  °C
Dewpoint
94  %
 Humidity
Wind Speed
8  km/h
4  kts
5  mph
2.2  m/s
Wind Direction
N
45°
E
90°
135°
S
180°
225°
W
270°
315°
 320°

North West
Airport Data
EHVK
Volkel Air Base
Metar :EHVK 211925Z AUTO 32004KT 280V350 3400 -RA SCT052 BKN059 OVC067 16/15 Q1006 YLO
Tue 21st May 21:25 pm
Raw Metar Info
Raw METAR is the most common format in the world for the transmission of observational weather data. It is highly standardized through the International Civil Aviation Organization (ICAO), which allows it to be understood throughout most of the world.
API Info
Data Provided by
https://www.checkwx.com/weather/EHVK

Aviation Weather providing METAR, TAF, AIRMET, SIGMET and OUTLOOK Weather Reports
© Info
CSS/SVG/PHP scripts were developed by weather34.com for use in the weather34 template © 2015-2024

Guide Info provided by Metar-Wikipedia